createdAt,value
2022-12-19T00:00:41.427Z,85.90
2022-12-19T00:01:41.517Z,86.00
2022-12-19T00:02:41.571Z,85.79
2022-12-19T00:03:41.454Z,85.69
2022-12-19T00:04:41.395Z,85.48
2022-12-19T00:05:41.379Z,85.48
2022-12-19T00:06:43.729Z,85.69
2022-12-19T00:07:41.370Z,85.58
2022-12-19T00:08:41.370Z,85.58
2022-12-19T00:09:41.364Z,85.16
2022-12-19T00:10:41.342Z,85.58
2022-12-19T00:11:41.350Z,85.79
2022-12-19T00:12:41.331Z,85.69
2022-12-19T00:13:41.467Z,85.79
2022-12-19T00:14:42.314Z,85.90
2022-12-19T00:15:41.315Z,85.27
2022-12-19T00:16:41.355Z,85.16
2022-12-19T00:17:41.300Z,85.48
2022-12-19T00:18:41.288Z,85.16
2022-12-19T00:19:41.295Z,85.02
2022-12-19T00:20:41.281Z,85.16
2022-12-19T00:21:41.255Z,85.02
2022-12-19T00:22:43.319Z,85.23
2022-12-19T00:23:41.247Z,84.74
2022-12-19T00:24:41.254Z,84.95
2022-12-19T00:25:41.230Z,84.70
2022-12-19T00:27:40.753Z,85.06
2022-12-19T00:28:40.758Z,85.33
2022-12-19T00:29:40.753Z,85.44
2022-12-19T00:30:41.833Z,85.48
2022-12-19T00:31:41.954Z,85.48
2022-12-19T00:32:41.812Z,85.44
2022-12-19T00:33:43.659Z,85.44
2022-12-19T00:34:41.804Z,85.69
2022-12-19T00:35:41.800Z,85.55
2022-12-19T00:36:41.793Z,85.13
2022-12-19T00:37:49.428Z,85.23
2022-12-19T00:38:42.867Z,85.02
2022-12-19T00:39:41.776Z,85.23
2022-12-19T00:40:41.768Z,85.02
2022-12-19T00:41:42.570Z,84.91
2022-12-19T00:42:41.743Z,84.81
2022-12-19T00:43:41.739Z,84.91
2022-12-19T00:44:41.722Z,84.81
2022-12-19T00:45:41.798Z,85.02
2022-12-19T00:46:41.718Z,84.81
2022-12-19T00:47:41.762Z,84.81
2022-12-19T00:48:41.710Z,84.81
2022-12-19T00:49:41.691Z,84.91
2022-12-19T00:50:42.152Z,84.91
2022-12-19T00:51:41.675Z,84.91
2022-12-19T00:52:41.666Z,84.70
2022-12-19T00:53:41.753Z,84.91
2022-12-19T00:54:41.987Z,85.23
2022-12-19T00:55:41.624Z,85.23
2022-12-19T00:56:41.639Z,85.33
2022-12-19T00:57:41.639Z,85.02
2022-12-19T00:58:46.547Z,84.91
2022-12-19T00:59:43.602Z,84.81
2022-12-19T01:00:42.287Z,84.95
2022-12-19T01:01:42.049Z,85.27
2022-12-19T01:02:41.660Z,85.37
2022-12-19T01:03:52.914Z,86.32
2022-12-19T01:04:43.558Z,86.85
2022-12-19T01:05:42.184Z,86.78
2022-12-19T01:06:41.561Z,86.74
2022-12-19T01:07:41.555Z,86.74
2022-12-19T01:08:41.534Z,86.74
2022-12-19T01:09:41.531Z,87.05
2022-12-19T01:10:41.609Z,86.85
2022-12-19T01:11:42.120Z,86.07
2022-12-19T01:12:41.527Z,86.60
2022-12-19T01:13:41.514Z,87.02
2022-12-19T01:14:41.488Z,86.80
2022-12-19T01:15:41.480Z,87.02
2022-12-19T01:16:41.527Z,86.80
2022-12-19T01:17:44.254Z,86.91
2022-12-19T01:18:41.709Z,86.80
2022-12-19T01:19:44.531Z,86.60
2022-12-19T01:20:42.456Z,86.55
2022-12-19T01:21:41.467Z,87.23
2022-12-19T01:22:41.440Z,86.55
2022-12-19T01:23:42.197Z,86.66
2022-12-19T01:24:41.426Z,86.35
2022-12-19T01:25:43.141Z,86.98
2022-12-19T01:26:47.285Z,85.93
2022-12-19T01:27:42.498Z,85.93
2022-12-19T01:28:42.198Z,86.45
2022-12-19T01:29:51.760Z,86.24
2022-12-19T01:30:42.386Z,86.10
2022-12-19T01:31:41.398Z,86.20
2022-12-19T01:32:41.370Z,86.87
2022-12-19T01:33:41.359Z,86.98
2022-12-19T01:34:41.354Z,86.77
2022-12-19T01:35:41.346Z,86.94
2022-12-19T01:36:41.329Z,86.98
2022-12-19T01:37:41.326Z,86.62
2022-12-19T01:38:41.310Z,86.62
2022-12-19T01:39:41.305Z,86.72
2022-12-19T01:40:41.298Z,86.72
2022-12-19T01:41:41.304Z,86.87
2022-12-19T01:42:41.301Z,87.08
2022-12-19T01:43:41.395Z,86.62
2022-12-19T01:44:41.338Z,87.04
2022-12-19T01:45:45.885Z,86.94
2022-12-19T01:46:43.296Z,87.15
2022-12-19T01:47:41.250Z,86.94
2022-12-19T01:48:42.212Z,86.94
2022-12-19T01:49:41.224Z,86.87
2022-12-19T01:50:46.092Z,86.52
2022-12-19T01:51:42.208Z,86.83
2022-12-19T01:52:41.212Z,86.94
2022-12-19T01:53:48.799Z,86.72
2022-12-19T01:54:42.207Z,86.62
2022-12-19T01:55:41.180Z,86.94
2022-12-19T01:56:41.153Z,87.11
2022-12-19T01:57:41.135Z,86.83
2022-12-19T01:58:41.131Z,86.90
2022-12-19T01:59:41.223Z,86.27
2022-12-19T02:00:41.155Z,86.06
2022-12-19T02:01:51.036Z,86.94
2022-12-19T02:02:42.206Z,86.41
2022-12-19T02:03:41.097Z,87.88
2022-12-19T02:04:41.092Z,88.09
2022-12-19T02:05:41.089Z,88.16
2022-12-19T02:06:41.075Z,87.46
2022-12-19T02:07:41.076Z,87.00
2022-12-19T02:08:41.071Z,86.79
2022-12-19T02:09:41.049Z,86.90
2022-12-19T02:10:41.038Z,86.69
2022-12-19T02:11:41.053Z,86.47
2022-12-19T02:12:41.028Z,86.79
2022-12-19T02:13:41.048Z,86.69
2022-12-19T02:14:41.010Z,86.90
2022-12-19T02:15:41.108Z,87.52
2022-12-19T02:16:41.008Z,87.11
2022-12-19T02:17:40.991Z,86.69
2022-12-19T02:18:40.997Z,86.90
2022-12-19T02:19:41.705Z,86.69
2022-12-19T02:20:40.985Z,86.79
2022-12-19T02:21:40.992Z,86.58
2022-12-19T02:22:40.996Z,86.79
2022-12-19T02:23:40.952Z,87.21
2022-12-19T02:24:41.217Z,86.37
2022-12-19T02:25:40.942Z,86.16
2022-12-19T02:26:40.941Z,87.21
2022-12-19T02:27:40.943Z,86.69
2022-12-19T02:28:40.927Z,86.90
2022-12-19T02:29:40.924Z,86.69
2022-12-19T02:30:40.895Z,86.76
2022-12-19T02:31:41.043Z,86.76
2022-12-19T02:32:40.889Z,87.00
2022-12-19T02:33:40.873Z,86.90
2022-12-19T02:34:44.394Z,87.00
2022-12-19T02:35:41.857Z,87.32
2022-12-19T02:36:42.640Z,86.90
2022-12-19T02:37:40.848Z,86.69
2022-12-19T02:38:40.871Z,87.00
2022-12-19T02:39:41.687Z,87.63
2022-12-19T02:40:40.832Z,88.05
2022-12-19T02:41:41.705Z,88.16
2022-12-19T02:42:40.821Z,88.47
2022-12-19T02:43:40.804Z,88.57
2022-12-19T02:44:40.800Z,88.26
2022-12-19T02:45:40.848Z,88.05
2022-12-19T02:46:40.782Z,88.89
2022-12-19T02:47:40.884Z,88.37
2022-12-19T02:48:40.781Z,88.79
2022-12-19T02:49:40.791Z,88.57
2022-12-19T02:50:40.788Z,88.68
2022-12-19T02:51:40.741Z,89.10
2022-12-19T02:52:40.737Z,89.00
2022-12-19T02:53:40.733Z,89.10
2022-12-19T02:54:44.830Z,88.93
2022-12-19T02:55:40.737Z,89.04
2022-12-19T02:56:40.709Z,89.42
2022-12-19T02:57:40.722Z,90.30
2022-12-19T02:58:40.692Z,90.19
2022-12-19T02:59:40.708Z,90.09
2022-12-19T03:00:40.689Z,90.15
2022-12-19T03:01:40.778Z,90.36
2022-12-19T03:02:40.835Z,90.15
2022-12-19T03:03:40.836Z,90.36
2022-12-19T03:04:40.676Z,89.62
2022-12-19T03:05:40.641Z,89.84
2022-12-19T03:06:40.642Z,90.05
2022-12-19T03:08:47.489Z,91.24
2022-12-19T03:09:47.490Z,91.24
2022-12-19T03:10:48.339Z,91.35
2022-12-19T03:11:49.434Z,91.30
2022-12-19T03:12:48.572Z,90.78
2022-12-19T03:13:48.549Z,90.78
2022-12-19T03:14:48.548Z,90.25
2022-12-19T03:15:48.544Z,90.25
2022-12-19T03:16:48.568Z,90.36
2022-12-19T03:17:48.526Z,90.25
2022-12-19T03:18:48.600Z,90.78
2022-12-19T03:19:48.495Z,91.35
2022-12-19T03:20:49.430Z,91.66
2022-12-19T03:21:48.533Z,92.08
2022-12-19T03:22:48.487Z,91.94
2022-12-19T03:23:48.499Z,91.77
2022-12-19T03:24:48.469Z,91.66
2022-12-19T03:25:48.490Z,91.45
2022-12-19T03:26:48.456Z,91.62
2022-12-19T03:27:48.458Z,91.52
2022-12-19T03:28:49.440Z,91.41
2022-12-19T03:29:48.429Z,91.62
2022-12-19T03:30:48.502Z,91.41
2022-12-19T03:31:48.414Z,91.16
2022-12-19T03:32:48.407Z,90.78
2022-12-19T03:33:48.393Z,90.25
2022-12-19T03:34:48.488Z,90.74
2022-12-19T03:35:48.397Z,90.47
2022-12-19T03:36:48.398Z,90.64
2022-12-19T03:37:48.379Z,90.64
2022-12-19T03:38:48.366Z,90.11
2022-12-19T03:39:48.350Z,90.22
2022-12-19T03:40:48.365Z,90.32
2022-12-19T03:41:48.350Z,90.11
2022-12-19T03:42:48.332Z,90.17
2022-12-19T03:43:48.322Z,90.00
2022-12-19T03:44:48.309Z,89.86
2022-12-19T03:45:48.321Z,90.42
2022-12-19T03:46:48.301Z,90.00
2022-12-19T03:47:48.313Z,90.11
2022-12-19T03:48:48.287Z,90.67
2022-12-19T03:49:48.276Z,90.64
2022-12-19T03:50:48.365Z,90.53
2022-12-19T03:51:48.266Z,91.30
2022-12-19T03:52:49.249Z,91.37
2022-12-19T03:53:48.261Z,91.37
2022-12-19T03:54:48.243Z,91.16
2022-12-19T03:55:48.944Z,91.16
2022-12-19T03:56:48.218Z,91.27
2022-12-19T03:57:48.212Z,91.05
2022-12-19T03:58:48.203Z,90.42
2022-12-19T03:59:48.206Z,90.42
2022-12-19T04:00:48.201Z,90.95
2022-12-19T04:01:48.313Z,90.64
2022-12-19T04:02:48.176Z,90.64
2022-12-19T04:03:48.187Z,90.53
2022-12-19T04:04:48.167Z,90.11
2022-12-19T04:05:48.155Z,90.11
2022-12-19T04:06:48.254Z,90.49
2022-12-19T04:07:48.143Z,90.28
2022-12-19T04:08:49.132Z,89.97
2022-12-19T04:09:48.136Z,90.07
2022-12-19T04:10:48.123Z,89.97
2022-12-19T04:11:48.112Z,90.28
2022-12-19T04:12:48.117Z,90.17
2022-12-19T04:13:48.093Z,89.97
2022-12-19T04:14:48.091Z,90.28
2022-12-19T04:15:48.113Z,89.86
2022-12-19T04:16:48.073Z,89.72
2022-12-19T04:17:48.065Z,90.07
2022-12-19T04:18:48.076Z,90.07
2022-12-19T04:19:48.052Z,89.23
2022-12-19T04:20:48.047Z,89.02
2022-12-19T04:21:48.027Z,89.29
2022-12-19T04:22:49.129Z,89.82
2022-12-19T04:23:48.026Z,89.29
2022-12-19T04:24:49.008Z,88.87
2022-12-19T04:25:48.880Z,89.29
2022-12-19T04:26:48.876Z,88.77
2022-12-19T04:27:47.985Z,88.77
2022-12-19T04:28:48.998Z,88.87
2022-12-19T04:29:47.980Z,88.87
2022-12-19T04:30:47.999Z,88.98
2022-12-19T04:31:47.961Z,89.40
2022-12-19T04:32:47.968Z,89.72
2022-12-19T04:33:47.938Z,89.82
2022-12-19T04:34:47.933Z,89.61
2022-12-19T04:35:47.939Z,89.09
2022-12-19T04:36:47.923Z,88.98
2022-12-19T04:37:50.422Z,88.87
2022-12-19T04:38:49.076Z,89.15
2022-12-19T04:39:47.903Z,89.29
2022-12-19T04:40:47.895Z,89.29
2022-12-19T04:41:47.875Z,90.13
2022-12-19T04:42:47.860Z,90.13
2022-12-19T04:43:48.884Z,90.13
2022-12-19T04:44:47.859Z,89.61
2022-12-19T04:45:49.707Z,90.17
2022-12-19T04:46:47.873Z,90.03
2022-12-19T04:47:47.835Z,89.92
2022-12-19T04:48:47.837Z,90.13
2022-12-19T04:49:47.812Z,90.03
2022-12-19T04:50:47.814Z,90.55
2022-12-19T04:51:47.805Z,90.66
2022-12-19T04:52:47.806Z,90.97
2022-12-19T04:53:47.784Z,91.08
2022-12-19T04:54:47.892Z,90.87
2022-12-19T04:55:47.768Z,90.41
2022-12-19T04:56:47.760Z,90.09
2022-12-19T04:57:47.771Z,90.30
2022-12-19T04:58:47.743Z,89.98
2022-12-19T04:59:47.747Z,90.05
2022-12-19T05:00:47.734Z,90.16
2022-12-19T05:01:47.823Z,89.22
2022-12-19T05:02:48.603Z,88.90
2022-12-19T05:03:52.712Z,88.90
2022-12-19T05:04:50.455Z,88.69
2022-12-19T05:05:47.696Z,88.90
2022-12-19T05:06:47.685Z,88.48
2022-12-19T05:07:47.692Z,88.69
2022-12-19T05:08:47.697Z,87.96
2022-12-19T05:09:47.660Z,88.44
2022-12-19T05:10:47.751Z,88.34
2022-12-19T05:11:47.657Z,88.37
2022-12-19T05:12:48.666Z,88.34
2022-12-19T05:13:47.645Z,88.44
2022-12-19T05:14:47.617Z,88.34
2022-12-19T05:15:47.637Z,87.92
2022-12-19T05:16:47.612Z,87.92
2022-12-19T05:17:47.601Z,88.54
2022-12-19T05:18:47.596Z,88.12
2022-12-19T05:19:47.587Z,88.02
2022-12-19T05:20:47.571Z,88.23
2022-12-19T05:21:47.565Z,88.34
2022-12-19T05:22:47.558Z,88.40
2022-12-19T05:23:47.580Z,87.71
2022-12-19T05:24:47.561Z,88.02
2022-12-19T05:25:47.536Z,88.44
2022-12-19T05:26:47.629Z,88.54
2022-12-19T05:27:47.528Z,88.44
2022-12-19T05:28:47.513Z,88.54
2022-12-19T05:29:47.520Z,88.65
2022-12-19T05:30:52.060Z,88.65
2022-12-19T05:31:49.523Z,88.61
2022-12-19T05:32:47.498Z,88.50
2022-12-19T05:33:47.477Z,88.65
2022-12-19T05:34:47.480Z,88.65
2022-12-19T05:35:47.496Z,89.17
2022-12-19T05:36:47.459Z,89.07
2022-12-19T05:37:47.447Z,89.07
2022-12-19T05:38:47.497Z,89.28
2022-12-19T05:39:47.438Z,89.80
2022-12-19T05:40:47.423Z,90.11
2022-12-19T05:41:49.195Z,89.86
2022-12-19T05:42:48.517Z,89.90
2022-12-19T05:43:47.399Z,89.80
2022-12-19T05:44:47.409Z,89.70
2022-12-19T05:45:47.398Z,89.55
2022-12-19T05:46:47.409Z,88.82
2022-12-19T05:47:47.375Z,89.13
2022-12-19T05:48:47.369Z,88.71
2022-12-19T05:49:47.382Z,89.03
2022-12-19T05:50:47.348Z,88.71
2022-12-19T05:51:47.373Z,89.13
2022-12-19T05:52:47.335Z,88.92
2022-12-19T05:53:47.324Z,88.71
2022-12-19T05:54:47.313Z,88.82
2022-12-19T05:55:47.319Z,88.82
2022-12-19T05:56:47.332Z,88.71
2022-12-19T05:57:47.296Z,88.71
2022-12-19T05:58:47.315Z,88.82
2022-12-19T05:59:47.273Z,89.34
2022-12-19T06:00:47.270Z,89.76
2022-12-19T06:01:47.333Z,90.01
2022-12-19T06:02:48.055Z,90.53
2022-12-19T06:03:47.342Z,90.95
2022-12-19T06:04:47.239Z,90.95
2022-12-19T06:05:47.225Z,91.47
2022-12-19T06:06:47.217Z,91.37
2022-12-19T06:07:47.210Z,91.37
2022-12-19T06:08:47.415Z,91.89
2022-12-19T06:09:47.201Z,92.35
2022-12-19T06:10:47.189Z,92.46
2022-12-19T06:11:47.199Z,92.63
2022-12-19T06:12:47.167Z,92.52
2022-12-19T06:13:47.174Z,92.06
2022-12-19T06:14:48.049Z,91.89
2022-12-19T06:15:47.186Z,92.10
2022-12-19T06:16:47.143Z,92.00
2022-12-19T06:17:47.973Z,91.79
2022-12-19T06:18:47.126Z,91.43
2022-12-19T06:19:47.109Z,91.33
2022-12-19T06:20:47.113Z,91.85
2022-12-19T06:21:48.486Z,91.43
2022-12-19T06:22:48.086Z,91.27
2022-12-19T06:23:47.093Z,91.54
2022-12-19T06:24:47.087Z,91.43
2022-12-19T06:25:47.070Z,91.12
2022-12-19T06:26:47.103Z,91.43
2022-12-19T06:27:47.062Z,91.02
2022-12-19T06:28:47.108Z,91.54
2022-12-19T06:29:47.054Z,91.79
2022-12-19T06:30:47.131Z,92.00
2022-12-19T06:31:47.094Z,92.21
2022-12-19T06:32:47.007Z,91.58
2022-12-19T06:33:47.024Z,92.48
2022-12-19T06:35:03.827Z,91.96
2022-12-19T06:35:48.984Z,92.06
2022-12-19T06:36:46.980Z,91.54
2022-12-19T06:37:46.969Z,91.22
2022-12-19T06:38:46.973Z,91.43
2022-12-19T06:39:47.955Z,91.54
2022-12-19T06:40:46.942Z,91.43
2022-12-19T06:41:46.947Z,91.54
2022-12-19T06:42:46.917Z,91.22
2022-12-19T06:43:50.536Z,91.22
2022-12-19T06:44:48.912Z,91.75
2022-12-19T06:45:47.913Z,92.27
2022-12-19T06:46:47.022Z,92.38
2022-12-19T06:47:46.882Z,92.38
2022-12-19T06:48:47.883Z,91.96
2022-12-19T06:49:47.382Z,92.33
2022-12-19T06:50:46.864Z,92.02
2022-12-19T06:51:46.842Z,91.96
2022-12-19T06:52:46.839Z,91.81
2022-12-19T06:53:46.847Z,91.75
2022-12-19T06:54:46.834Z,91.96
2022-12-19T06:55:46.827Z,92.27
2022-12-19T06:56:46.825Z,92.27
2022-12-19T06:57:46.803Z,91.91
2022-12-19T06:58:46.840Z,92.02
2022-12-19T06:59:46.806Z,91.60
2022-12-19T07:00:46.835Z,91.60
2022-12-19T07:01:46.870Z,91.71
2022-12-19T07:02:46.985Z,91.71
2022-12-19T07:03:46.779Z,91.28
2022-12-19T07:04:46.742Z,91.50
2022-12-19T07:05:47.373Z,91.18
2022-12-19T21:26:54.373Z,92.47
2022-12-19T21:27:50.138Z,92.99
2022-12-19T21:28:49.144Z,93.10
2022-12-19T21:29:49.121Z,93.52
2022-12-19T21:30:49.113Z,93.52
2022-12-19T21:31:50.294Z,93.58
2022-12-19T21:32:50.185Z,93.79
2022-12-19T21:33:50.206Z,93.41
2022-12-19T21:34:50.175Z,93.27
2022-12-19T21:35:50.178Z,93.48
2022-12-19T21:36:50.158Z,93.68
2022-12-19T21:37:50.256Z,93.16
2022-12-19T21:38:51.000Z,93.05
2022-12-19T21:39:50.127Z,93.05
2022-12-19T21:40:50.122Z,92.85
2022-12-19T21:41:50.116Z,92.54
2022-12-19T21:42:50.117Z,92.64
2022-12-19T21:43:50.106Z,92.54
2022-12-19T21:44:50.103Z,92.85
2022-12-19T21:45:50.082Z,92.49
2022-12-19T21:46:56.073Z,92.29
2022-12-19T21:47:50.061Z,92.29
2022-12-19T21:48:50.054Z,91.91
2022-12-19T21:49:50.128Z,93.01
2022-12-19T21:50:51.079Z,92.18
2022-12-19T21:51:50.048Z,92.60
2022-12-19T21:52:55.628Z,92.29
2022-12-19T21:53:52.045Z,92.39
2022-12-19T21:54:50.044Z,92.08
2022-12-19T21:55:50.021Z,92.39
2022-12-19T21:56:49.993Z,91.77
2022-12-19T21:57:50.519Z,92.29
2022-12-19T21:58:49.993Z,92.39
2022-12-19T21:59:49.995Z,92.91
